sensor_id;sensor_type;location;lat;lon;timestamp;P1;durP1;ratioP1;P2;durP2;ratioP2
78834;SDS011;68187;42.682;23.352;2023-03-23T00:01:54;39.70;;;26.33;;
78834;SDS011;68187;42.682;23.352;2023-03-23T00:04:21;44.55;;;26.45;;
78834;SDS011;68187;42.682;23.352;2023-03-23T00:06:53;42.92;;;25.10;;
78834;SDS011;68187;42.682;23.352;2023-03-23T00:09:20;43.58;;;27.13;;
78834;SDS011;68187;42.682;23.352;2023-03-23T00:11:49;46.95;;;28.77;;
78834;SDS011;68187;42.682;23.352;2023-03-23T00:14:17;41.35;;;26.77;;
78834;SDS011;68187;42.682;23.352;2023-03-23T00:16:47;44.95;;;26.40;;
78834;SDS011;68187;42.682;23.352;2023-03-23T00:19:15;43.88;;;26.92;;
78834;SDS011;68187;42.682;23.352;2023-03-23T00:21:44;42.85;;;26.50;;
78834;SDS011;68187;42.682;23.352;2023-03-23T00:24:13;39.88;;;23.45;;
78834;SDS011;68187;42.682;23.352;2023-03-23T00:26:43;49.85;;;27.00;;
78834;SDS011;68187;42.682;23.352;2023-03-23T00:29:12;43.63;;;26.05;;
78834;SDS011;68187;42.682;23.352;2023-03-23T00:31:39;43.70;;;27.25;;
78834;SDS011;68187;42.682;23.352;2023-03-23T00:34:12;42.35;;;26.90;;
78834;SDS011;68187;42.682;23.352;2023-03-23T00:36:43;37.60;;;24.83;;
78834;SDS011;68187;42.682;23.352;2023-03-23T00:39:10;43.45;;;26.48;;
78834;SDS011;68187;42.682;23.352;2023-03-23T00:41:38;44.63;;;25.33;;
78834;SDS011;68187;42.682;23.352;2023-03-23T00:44:05;41.35;;;25.55;;
78834;SDS011;68187;42.682;23.352;2023-03-23T00:46:33;42.03;;;24.58;;
78834;SDS011;68187;42.682;23.352;2023-03-23T00:49:10;41.83;;;26.50;;
78834;SDS011;68187;42.682;23.352;2023-03-23T00:51:38;45.67;;;26.40;;
78834;SDS011;68187;42.682;23.352;2023-03-23T00:54:05;44.30;;;25.65;;
78834;SDS011;68187;42.682;23.352;2023-03-23T00:56:32;45.28;;;26.48;;
78834;SDS011;68187;42.682;23.352;2023-03-23T00:59:01;40.17;;;26.98;;
78834;SDS011;68187;42.682;23.352;2023-03-23T01:01:28;54.25;;;30.60;;
78834;SDS011;68187;42.682;23.352;2023-03-23T01:03:54;81.75;;;32.83;;
78834;SDS011;68187;42.682;23.352;2023-03-23T01:06:26;59.92;;;33.15;;
78834;SDS011;68187;42.682;23.352;2023-03-23T01:08:53;61.17;;;32.72;;
78834;SDS011;68187;42.682;23.352;2023-03-23T01:11:21;55.38;;;27.83;;
78834;SDS011;68187;42.682;23.352;2023-03-23T01:13:49;50.45;;;29.02;;
78834;SDS011;68187;42.682;23.352;2023-03-23T01:16:17;53.45;;;28.33;;
78834;SDS011;68187;42.682;23.352;2023-03-23T01:18:44;64.22;;;30.10;;
78834;SDS011;68187;42.682;23.352;2023-03-23T01:21:11;75.25;;;31.33;;
78834;SDS011;68187;42.682;23.352;2023-03-23T01:23:39;97.47;;;28.75;;
78834;SDS011;68187;42.682;23.352;2023-03-23T01:26:06;79.90;;;32.08;;
78834;SDS011;68187;42.682;23.352;2023-03-23T01:28:34;59.83;;;29.33;;
78834;SDS011;68187;42.682;23.352;2023-03-23T01:31:02;77.45;;;29.95;;
78834;SDS011;68187;42.682;23.352;2023-03-23T01:33:31;54.45;;;29.05;;
78834;SDS011;68187;42.682;23.352;2023-03-23T01:36:04;56.13;;;29.23;;
78834;SDS011;68187;42.682;23.352;2023-03-23T01:38:32;50.35;;;26.95;;
78834;SDS011;68187;42.682;23.352;2023-03-23T01:41:00;50.20;;;26.33;;
78834;SDS011;68187;42.682;23.352;2023-03-23T01:43:27;48.13;;;26.65;;
78834;SDS011;68187;42.682;23.352;2023-03-23T01:45:54;48.78;;;27.98;;
78834;SDS011;68187;42.682;23.352;2023-03-23T01:48:22;48.05;;;26.85;;
78834;SDS011;68187;42.682;23.352;2023-03-23T01:50:53;52.40;;;27.83;;
78834;SDS011;68187;42.682;23.352;2023-03-23T01:53:24;45.25;;;26.50;;
78834;SDS011;68187;42.682;23.352;2023-03-23T01:55:55;49.40;;;28.08;;
78834;SDS011;68187;42.682;23.352;2023-03-23T01:58:25;47.65;;;27.02;;
78834;SDS011;68187;42.682;23.352;2023-03-23T02:00:54;42.17;;;26.17;;
78834;SDS011;68187;42.682;23.352;2023-03-23T02:03:24;43.88;;;24.88;;
78834;SDS011;68187;42.682;23.352;2023-03-23T02:05:51;41.33;;;24.85;;
78834;SDS011;68187;42.682;23.352;2023-03-23T02:08:19;50.42;;;25.73;;
78834;SDS011;68187;42.682;23.352;2023-03-23T02:10:47;41.83;;;24.42;;
78834;SDS011;68187;42.682;23.352;2023-03-23T02:13:14;45.78;;;24.27;;
78834;SDS011;68187;42.682;23.352;2023-03-23T02:15:45;45.30;;;25.48;;
78834;SDS011;68187;42.682;23.352;2023-03-23T02:18:19;45.08;;;25.58;;
78834;SDS011;68187;42.682;23.352;2023-03-23T02:21:02;46.63;;;27.23;;
78834;SDS011;68187;42.682;23.352;2023-03-23T02:24:16;44.20;;;25.85;;
78834;SDS011;68187;42.682;23.352;2023-03-23T02:27:14;42.55;;;24.08;;
78834;SDS011;68187;42.682;23.352;2023-03-23T02:29:52;44.97;;;22.90;;
78834;SDS011;68187;42.682;23.352;2023-03-23T02:35:39;40.33;;;23.05;;
78834;SDS011;68187;42.682;23.352;2023-03-23T02:38:08;42.83;;;24.52;;
78834;SDS011;68187;42.682;23.352;2023-03-23T02:40:41;41.90;;;25.98;;
78834;SDS011;68187;42.682;23.352;2023-03-23T02:43:11;43.90;;;26.20;;
78834;SDS011;68187;42.682;23.352;2023-03-23T02:45:41;43.63;;;24.52;;
78834;SDS011;68187;42.682;23.352;2023-03-23T02:48:10;44.97;;;26.55;;
78834;SDS011;68187;42.682;23.352;2023-03-23T02:50:41;43.88;;;26.75;;
78834;SDS011;68187;42.682;23.352;2023-03-23T02:53:12;45.33;;;27.13;;
78834;SDS011;68187;42.682;23.352;2023-03-23T02:55:42;39.38;;;22.30;;
78834;SDS011;68187;42.682;23.352;2023-03-23T02:58:11;36.53;;;22.02;;
78834;SDS011;68187;42.682;23.352;2023-03-23T03:00:38;38.28;;;22.25;;
78834;SDS011;68187;42.682;23.352;2023-03-23T03:03:06;37.47;;;19.77;;
78834;SDS011;68187;42.682;23.352;2023-03-23T03:05:40;31.70;;;19.88;;
78834;SDS011;68187;42.682;23.352;2023-03-23T03:08:15;32.83;;;18.73;;
78834;SDS011;68187;42.682;23.352;2023-03-23T03:10:49;33.30;;;18.70;;
78834;SDS011;68187;42.682;23.352;2023-03-23T03:13:27;36.10;;;22.85;;
78834;SDS011;68187;42.682;23.352;2023-03-23T03:16:04;29.30;;;16.42;;
78834;SDS011;68187;42.682;23.352;2023-03-23T03:18:38;29.63;;;17.80;;
78834;SDS011;68187;42.682;23.352;2023-03-23T03:21:13;30.95;;;17.38;;
78834;SDS011;68187;42.682;23.352;2023-03-23T03:23:45;37.22;;;18.20;;
78834;SDS011;68187;42.682;23.352;2023-03-23T03:26:16;25.48;;;15.23;;
78834;SDS011;68187;42.682;23.352;2023-03-23T03:28:45;40.10;;;22.88;;
78834;SDS011;68187;42.682;23.352;2023-03-23T03:31:15;38.63;;;22.20;;
78834;SDS011;68187;42.682;23.352;2023-03-23T03:33:44;42.95;;;22.67;;
78834;SDS011;68187;42.682;23.352;2023-03-23T03:36:16;33.88;;;20.27;;
78834;SDS011;68187;42.682;23.352;2023-03-23T03:38:45;37.47;;;21.55;;
78834;SDS011;68187;42.682;23.352;2023-03-23T03:41:14;38.90;;;22.80;;
78834;SDS011;68187;42.682;23.352;2023-03-23T03:43:41;41.80;;;24.05;;
78834;SDS011;68187;42.682;23.352;2023-03-23T03:46:07;39.08;;;20.15;;
78834;SDS011;68187;42.682;23.352;2023-03-23T03:48:34;36.03;;;19.90;;
78834;SDS011;68187;42.682;23.352;2023-03-23T03:51:01;45.58;;;27.00;;
78834;SDS011;68187;42.682;23.352;2023-03-23T03:53:29;39.25;;;21.33;;
78834;SDS011;68187;42.682;23.352;2023-03-23T03:55:56;31.10;;;18.70;;
78834;SDS011;68187;42.682;23.352;2023-03-23T03:58:25;36.25;;;20.52;;
78834;SDS011;68187;42.682;23.352;2023-03-23T04:00:57;39.15;;;23.52;;
78834;SDS011;68187;42.682;23.352;2023-03-23T04:03:24;37.00;;;21.77;;
78834;SDS011;68187;42.682;23.352;2023-03-23T04:05:52;40.08;;;24.30;;
78834;SDS011;68187;42.682;23.352;2023-03-23T04:08:20;40.55;;;23.33;;
78834;SDS011;68187;42.682;23.352;2023-03-23T04:10:48;40.25;;;24.60;;
78834;SDS011;68187;42.682;23.352;2023-03-23T04:13:15;38.92;;;22.20;;
78834;SDS011;68187;42.682;23.352;2023-03-23T04:15:43;35.78;;;21.83;;
78834;SDS011;68187;42.682;23.352;2023-03-23T04:18:10;31.23;;;19.15;;
78834;SDS011;68187;42.682;23.352;2023-03-23T04:20:40;34.75;;;19.25;;
78834;SDS011;68187;42.682;23.352;2023-03-23T04:23:07;32.13;;;18.30;;
78834;SDS011;68187;42.682;23.352;2023-03-23T04:25:34;31.80;;;18.60;;
78834;SDS011;68187;42.682;23.352;2023-03-23T04:28:03;28.70;;;17.83;;
78834;SDS011;68187;42.682;23.352;2023-03-23T04:30:29;29.83;;;16.77;;
78834;SDS011;68187;42.682;23.352;2023-03-23T04:32:57;34.55;;;19.17;;
78834;SDS011;68187;42.682;23.352;2023-03-23T04:35:26;33.35;;;20.95;;
78834;SDS011;68187;42.682;23.352;2023-03-23T04:37:54;33.10;;;19.30;;
78834;SDS011;68187;42.682;23.352;2023-03-23T04:40:22;31.38;;;18.48;;
78834;SDS011;68187;42.682;23.352;2023-03-23T04:42:50;28.13;;;18.10;;
78834;SDS011;68187;42.682;23.352;2023-03-23T04:45:23;28.63;;;14.63;;
78834;SDS011;68187;42.682;23.352;2023-03-23T04:47:51;28.15;;;15.90;;
78834;SDS011;68187;42.682;23.352;2023-03-23T04:50:23;29.55;;;18.02;;
78834;SDS011;68187;42.682;23.352;2023-03-23T04:52:51;31.95;;;17.48;;
78834;SDS011;68187;42.682;23.352;2023-03-23T04:55:21;31.33;;;17.17;;
78834;SDS011;68187;42.682;23.352;2023-03-23T04:57:48;30.13;;;17.05;;
78834;SDS011;68187;42.682;23.352;2023-03-23T05:00:15;26.40;;;16.40;;
78834;SDS011;68187;42.682;23.352;2023-03-23T05:02:44;28.17;;;14.95;;
78834;SDS011;68187;42.682;23.352;2023-03-23T05:05:16;24.80;;;16.20;;
78834;SDS011;68187;42.682;23.352;2023-03-23T05:07:44;22.15;;;13.45;;
78834;SDS011;68187;42.682;23.352;2023-03-23T05:10:12;24.95;;;14.93;;
78834;SDS011;68187;42.682;23.352;2023-03-23T05:12:40;28.45;;;14.82;;
78834;SDS011;68187;42.682;23.352;2023-03-23T05:15:08;25.33;;;15.15;;
78834;SDS011;68187;42.682;23.352;2023-03-23T05:17:35;23.15;;;15.80;;
78834;SDS011;68187;42.682;23.352;2023-03-23T05:20:05;21.23;;;14.48;;
78834;SDS011;68187;42.682;23.352;2023-03-23T05:22:34;24.73;;;14.93;;
78834;SDS011;68187;42.682;23.352;2023-03-23T05:25:01;21.60;;;13.75;;
78834;SDS011;68187;42.682;23.352;2023-03-23T05:27:28;26.75;;;16.40;;
78834;SDS011;68187;42.682;23.352;2023-03-23T05:29:56;24.75;;;14.95;;
78834;SDS011;68187;42.682;23.352;2023-03-23T05:32:23;21.55;;;12.80;;
78834;SDS011;68187;42.682;23.352;2023-03-23T05:34:54;22.95;;;13.07;;
78834;SDS011;68187;42.682;23.352;2023-03-23T05:37:23;23.88;;;13.30;;
78834;SDS011;68187;42.682;23.352;2023-03-23T05:39:50;21.75;;;14.60;;
78834;SDS011;68187;42.682;23.352;2023-03-23T05:42:18;20.95;;;13.85;;
78834;SDS011;68187;42.682;23.352;2023-03-23T05:44:45;22.00;;;14.30;;
78834;SDS011;68187;42.682;23.352;2023-03-23T05:47:12;24.88;;;13.45;;
78834;SDS011;68187;42.682;23.352;2023-03-23T05:49:39;26.73;;;14.23;;
78834;SDS011;68187;42.682;23.352;2023-03-23T05:52:06;24.35;;;13.68;;
78834;SDS011;68187;42.682;23.352;2023-03-23T05:54:34;23.75;;;14.57;;
78834;SDS011;68187;42.682;23.352;2023-03-23T05:57:01;23.98;;;14.13;;
78834;SDS011;68187;42.682;23.352;2023-03-23T05:59:27;21.27;;;13.45;;
78834;SDS011;68187;42.682;23.352;2023-03-23T06:01:54;20.95;;;12.98;;
78834;SDS011;68187;42.682;23.352;2023-03-23T06:04:22;22.25;;;13.77;;
78834;SDS011;68187;42.682;23.352;2023-03-23T06:06:50;23.25;;;14.90;;
78834;SDS011;68187;42.682;23.352;2023-03-23T06:09:17;26.38;;;15.23;;
78834;SDS011;68187;42.682;23.352;2023-03-23T06:11:45;25.95;;;16.50;;
78834;SDS011;68187;42.682;23.352;2023-03-23T06:14:13;26.20;;;15.70;;
78834;SDS011;68187;42.682;23.352;2023-03-23T06:16:41;26.88;;;16.45;;
78834;SDS011;68187;42.682;23.352;2023-03-23T06:19:08;29.80;;;16.83;;
78834;SDS011;68187;42.682;23.352;2023-03-23T06:21:36;33.50;;;18.08;;
78834;SDS011;68187;42.682;23.352;2023-03-23T06:24:03;33.45;;;18.95;;
78834;SDS011;68187;42.682;23.352;2023-03-23T06:26:32;30.52;;;18.77;;
78834;SDS011;68187;42.682;23.352;2023-03-23T06:29:01;31.15;;;19.85;;
78834;SDS011;68187;42.682;23.352;2023-03-23T06:31:28;32.10;;;19.65;;
78834;SDS011;68187;42.682;23.352;2023-03-23T06:33:56;31.98;;;19.55;;
78834;SDS011;68187;42.682;23.352;2023-03-23T06:36:22;31.70;;;20.05;;
78834;SDS011;68187;42.682;23.352;2023-03-23T06:38:51;34.53;;;20.70;;
78834;SDS011;68187;42.682;23.352;2023-03-23T06:41:18;35.15;;;22.05;;
78834;SDS011;68187;42.682;23.352;2023-03-23T06:43:45;31.90;;;19.58;;
78834;SDS011;68187;42.682;23.352;2023-03-23T06:46:13;32.38;;;19.63;;
78834;SDS011;68187;42.682;23.352;2023-03-23T06:48:40;33.40;;;22.33;;
78834;SDS011;68187;42.682;23.352;2023-03-23T06:51:07;31.92;;;21.35;;
78834;SDS011;68187;42.682;23.352;2023-03-23T06:53:34;34.97;;;21.73;;
78834;SDS011;68187;42.682;23.352;2023-03-23T06:56:01;34.85;;;22.75;;
78834;SDS011;68187;42.682;23.352;2023-03-23T06:58:28;35.13;;;21.75;;
78834;SDS011;68187;42.682;23.352;2023-03-23T07:00:55;34.60;;;21.05;;
78834;SDS011;68187;42.682;23.352;2023-03-23T07:03:24;35.08;;;21.70;;
78834;SDS011;68187;42.682;23.352;2023-03-23T07:05:52;29.90;;;20.55;;
78834;SDS011;68187;42.682;23.352;2023-03-23T07:08:19;31.77;;;19.15;;
78834;SDS011;68187;42.682;23.352;2023-03-23T07:10:46;30.70;;;19.50;;
78834;SDS011;68187;42.682;23.352;2023-03-23T07:13:15;33.67;;;19.48;;
78834;SDS011;68187;42.682;23.352;2023-03-23T07:15:41;30.23;;;18.55;;
78834;SDS011;68187;42.682;23.352;2023-03-23T07:18:09;35.50;;;20.10;;
78834;SDS011;68187;42.682;23.352;2023-03-23T07:20:37;30.00;;;19.10;;
78834;SDS011;68187;42.682;23.352;2023-03-23T07:23:04;29.13;;;18.50;;
78834;SDS011;68187;42.682;23.352;2023-03-23T07:25:31;32.97;;;20.48;;
78834;SDS011;68187;42.682;23.352;2023-03-23T07:27:58;31.33;;;18.83;;
78834;SDS011;68187;42.682;23.352;2023-03-23T07:30:25;33.45;;;20.58;;
78834;SDS011;68187;42.682;23.352;2023-03-23T07:32:54;39.55;;;21.35;;
78834;SDS011;68187;42.682;23.352;2023-03-23T07:35:21;31.67;;;20.13;;
78834;SDS011;68187;42.682;23.352;2023-03-23T07:37:49;32.15;;;20.00;;
78834;SDS011;68187;42.682;23.352;2023-03-23T07:40:16;31.17;;;19.92;;
78834;SDS011;68187;42.682;23.352;2023-03-23T07:42:44;29.40;;;18.90;;
78834;SDS011;68187;42.682;23.352;2023-03-23T07:45:14;27.00;;;18.48;;
78834;SDS011;68187;42.682;23.352;2023-03-23T07:47:41;31.02;;;20.38;;
78834;SDS011;68187;42.682;23.352;2023-03-23T07:50:08;29.40;;;17.98;;
78834;SDS011;68187;42.682;23.352;2023-03-23T07:52:35;30.30;;;19.40;;
78834;SDS011;68187;42.682;23.352;2023-03-23T07:55:05;31.17;;;17.98;;
78834;SDS011;68187;42.682;23.352;2023-03-23T07:57:33;34.08;;;19.38;;
78834;SDS011;68187;42.682;23.352;2023-03-23T08:00:00;34.90;;;18.52;;
78834;SDS011;68187;42.682;23.352;2023-03-23T08:02:39;31.25;;;17.23;;
78834;SDS011;68187;42.682;23.352;2023-03-23T08:05:06;27.58;;;16.67;;
78834;SDS011;68187;42.682;23.352;2023-03-23T08:07:35;31.30;;;18.17;;
78834;SDS011;68187;42.682;23.352;2023-03-23T08:10:02;29.10;;;19.17;;
78834;SDS011;68187;42.682;23.352;2023-03-23T08:12:30;28.23;;;18.05;;
78834;SDS011;68187;42.682;23.352;2023-03-23T08:14:57;31.27;;;20.05;;
78834;SDS011;68187;42.682;23.352;2023-03-23T08:17:24;29.88;;;18.35;;
78834;SDS011;68187;42.682;23.352;2023-03-23T08:19:51;29.52;;;19.17;;
78834;SDS011;68187;42.682;23.352;2023-03-23T08:22:17;25.77;;;17.85;;
78834;SDS011;68187;42.682;23.352;2023-03-23T08:24:44;28.42;;;16.20;;
78834;SDS011;68187;42.682;23.352;2023-03-23T08:27:11;27.42;;;17.70;;
78834;SDS011;68187;42.682;23.352;2023-03-23T08:29:39;22.27;;;13.90;;
78834;SDS011;68187;42.682;23.352;2023-03-23T08:32:06;29.65;;;17.27;;
78834;SDS011;68187;42.682;23.352;2023-03-23T08:34:33;26.55;;;14.98;;
78834;SDS011;68187;42.682;23.352;2023-03-23T08:36:59;24.10;;;14.88;;
78834;SDS011;68187;42.682;23.352;2023-03-23T08:39:26;23.13;;;14.70;;
78834;SDS011;68187;42.682;23.352;2023-03-23T08:41:55;33.28;;;17.27;;
78834;SDS011;68187;42.682;23.352;2023-03-23T08:44:21;23.98;;;16.88;;
78834;SDS011;68187;42.682;23.352;2023-03-23T08:46:49;24.23;;;14.88;;
78834;SDS011;68187;42.682;23.352;2023-03-23T08:49:19;20.35;;;11.68;;
78834;SDS011;68187;42.682;23.352;2023-03-23T08:51:46;21.50;;;13.25;;
78834;SDS011;68187;42.682;23.352;2023-03-23T08:54:13;22.25;;;15.48;;
78834;SDS011;68187;42.682;23.352;2023-03-23T08:56:40;12.05;;;7.97;;
78834;SDS011;68187;42.682;23.352;2023-03-23T08:59:07;12.95;;;8.27;;
78834;SDS011;68187;42.682;23.352;2023-03-23T09:01:35;12.55;;;7.93;;
78834;SDS011;68187;42.682;23.352;2023-03-23T09:04:03;16.75;;;9.82;;
78834;SDS011;68187;42.682;23.352;2023-03-23T09:06:30;13.90;;;8.45;;
78834;SDS011;68187;42.682;23.352;2023-03-23T09:08:58;13.02;;;6.78;;
78834;SDS011;68187;42.682;23.352;2023-03-23T09:11:25;11.90;;;6.30;;
78834;SDS011;68187;42.682;23.352;2023-03-23T09:13:52;13.95;;;7.55;;
78834;SDS011;68187;42.682;23.352;2023-03-23T09:16:19;14.40;;;8.70;;
78834;SDS011;68187;42.682;23.352;2023-03-23T09:18:45;14.18;;;8.65;;
78834;SDS011;68187;42.682;23.352;2023-03-23T09:21:14;14.88;;;9.07;;
78834;SDS011;68187;42.682;23.352;2023-03-23T09:23:40;17.30;;;8.50;;
78834;SDS011;68187;42.682;23.352;2023-03-23T09:26:09;11.73;;;6.88;;
78834;SDS011;68187;42.682;23.352;2023-03-23T09:28:36;12.80;;;7.82;;
78834;SDS011;68187;42.682;23.352;2023-03-23T09:31:03;13.55;;;7.50;;
78834;SDS011;68187;42.682;23.352;2023-03-23T09:33:30;14.13;;;8.07;;
78834;SDS011;68187;42.682;23.352;2023-03-23T09:35:59;16.13;;;8.85;;
78834;SDS011;68187;42.682;23.352;2023-03-23T09:38:27;13.07;;;7.00;;
78834;SDS011;68187;42.682;23.352;2023-03-23T09:40:59;12.50;;;7.25;;
78834;SDS011;68187;42.682;23.352;2023-03-23T09:43:43;12.35;;;7.75;;
78834;SDS011;68187;42.682;23.352;2023-03-23T09:46:21;11.60;;;7.13;;
78834;SDS011;68187;42.682;23.352;2023-03-23T09:49:08;11.75;;;7.55;;
78834;SDS011;68187;42.682;23.352;2023-03-23T09:51:42;10.77;;;7.05;;
78834;SDS011;68187;42.682;23.352;2023-03-23T09:54:14;11.88;;;6.30;;
78834;SDS011;68187;42.682;23.352;2023-03-23T09:56:48;11.52;;;6.57;;
78834;SDS011;68187;42.682;23.352;2023-03-23T09:59:18;10.07;;;6.35;;
78834;SDS011;68187;42.682;23.352;2023-03-23T10:01:50;13.48;;;7.05;;
78834;SDS011;68187;42.682;23.352;2023-03-23T10:04:24;12.18;;;6.15;;
78834;SDS011;68187;42.682;23.352;2023-03-23T10:06:57;10.93;;;6.32;;
78834;SDS011;68187;42.682;23.352;2023-03-23T10:09:27;11.68;;;6.65;;
78834;SDS011;68187;42.682;23.352;2023-03-23T10:11:58;10.05;;;6.05;;
78834;SDS011;68187;42.682;23.352;2023-03-23T10:14:33;10.32;;;6.57;;
78834;SDS011;68187;42.682;23.352;2023-03-23T10:17:13;11.30;;;6.18;;
78834;SDS011;68187;42.682;23.352;2023-03-23T10:19:43;11.20;;;7.10;;
78834;SDS011;68187;42.682;23.352;2023-03-23T10:22:16;9.98;;;6.75;;
78834;SDS011;68187;42.682;23.352;2023-03-23T10:24:50;11.82;;;6.82;;
78834;SDS011;68187;42.682;23.352;2023-03-23T10:27:23;11.70;;;6.90;;
78834;SDS011;68187;42.682;23.352;2023-03-23T10:29:55;11.05;;;7.00;;
78834;SDS011;68187;42.682;23.352;2023-03-23T10:32:37;12.80;;;6.38;;
78834;SDS011;68187;42.682;23.352;2023-03-23T10:35:09;9.57;;;5.78;;
78834;SDS011;68187;42.682;23.352;2023-03-23T10:37:41;10.88;;;6.68;;
78834;SDS011;68187;42.682;23.352;2023-03-23T10:42:43;10.15;;;5.95;;
78834;SDS011;68187;42.682;23.352;2023-03-23T10:45:12;10.65;;;6.22;;
78834;SDS011;68187;42.682;23.352;2023-03-23T10:47:46;9.35;;;6.13;;
78834;SDS011;68187;42.682;23.352;2023-03-23T10:50:16;8.68;;;5.40;;
78834;SDS011;68187;42.682;23.352;2023-03-23T10:52:49;11.25;;;5.63;;
78834;SDS011;68187;42.682;23.352;2023-03-23T10:55:20;9.68;;;6.47;;
78834;SDS011;68187;42.682;23.352;2023-03-23T10:57:58;10.52;;;5.75;;
78834;SDS011;68187;42.682;23.352;2023-03-23T11:00:27;9.68;;;5.88;;
78834;SDS011;68187;42.682;23.352;2023-03-23T11:02:59;11.00;;;5.90;;
78834;SDS011;68187;42.682;23.352;2023-03-23T11:05:32;9.15;;;5.35;;
78834;SDS011;68187;42.682;23.352;2023-03-23T11:08:02;10.38;;;5.93;;
78834;SDS011;68187;42.682;23.352;2023-03-23T11:10:35;9.68;;;5.65;;
78834;SDS011;68187;42.682;23.352;2023-03-23T11:13:03;10.98;;;6.03;;
78834;SDS011;68187;42.682;23.352;2023-03-23T11:15:35;10.05;;;6.28;;
78834;SDS011;68187;42.682;23.352;2023-03-23T11:18:06;10.60;;;6.53;;
78834;SDS011;68187;42.682;23.352;2023-03-23T11:20:37;8.82;;;5.38;;
78834;SDS011;68187;42.682;23.352;2023-03-23T11:23:17;8.23;;;4.78;;
78834;SDS011;68187;42.682;23.352;2023-03-23T11:25:55;10.07;;;5.70;;
78834;SDS011;68187;42.682;23.352;2023-03-23T11:28:29;9.23;;;5.43;;
78834;SDS011;68187;42.682;23.352;2023-03-23T11:30:58;9.52;;;6.00;;
78834;SDS011;68187;42.682;23.352;2023-03-23T11:33:28;9.40;;;5.72;;
78834;SDS011;68187;42.682;23.352;2023-03-23T11:35:56;8.65;;;4.97;;
78834;SDS011;68187;42.682;23.352;2023-03-23T11:38:24;8.68;;;5.45;;
78834;SDS011;68187;42.682;23.352;2023-03-23T11:40:54;9.70;;;5.43;;
78834;SDS011;68187;42.682;23.352;2023-03-23T11:43:21;9.63;;;6.10;;
78834;SDS011;68187;42.682;23.352;2023-03-23T11:45:51;9.75;;;6.10;;
78834;SDS011;68187;42.682;23.352;2023-03-23T11:48:26;10.25;;;5.65;;
78834;SDS011;68187;42.682;23.352;2023-03-23T11:51:02;9.38;;;4.70;;
78834;SDS011;68187;42.682;23.352;2023-03-23T11:53:40;8.85;;;5.78;;
78834;SDS011;68187;42.682;23.352;2023-03-23T11:56:18;9.05;;;5.60;;
78834;SDS011;68187;42.682;23.352;2023-03-23T11:58:50;10.30;;;5.85;;
78834;SDS011;68187;42.682;23.352;2023-03-23T12:01:24;8.02;;;5.05;;
78834;SDS011;68187;42.682;23.352;2023-03-23T12:07:04;9.23;;;5.53;;
78834;SDS011;68187;42.682;23.352;2023-03-23T12:09:43;9.48;;;7.25;;
78834;SDS011;68187;42.682;23.352;2023-03-23T12:12:19;11.05;;;6.32;;
78834;SDS011;68187;42.682;23.352;2023-03-23T12:14:55;10.18;;;5.82;;
78834;SDS011;68187;42.682;23.352;2023-03-23T12:17:31;11.27;;;5.40;;
78834;SDS011;68187;42.682;23.352;2023-03-23T12:20:12;10.43;;;5.95;;
78834;SDS011;68187;42.682;23.352;2023-03-23T12:22:50;13.38;;;6.35;;
78834;SDS011;68187;42.682;23.352;2023-03-23T12:25:45;8.68;;;5.93;;
78834;SDS011;68187;42.682;23.352;2023-03-23T12:28:41;8.65;;;4.93;;
78834;SDS011;68187;42.682;23.352;2023-03-23T12:31:19;9.80;;;5.75;;
78834;SDS011;68187;42.682;23.352;2023-03-23T12:33:54;9.30;;;5.43;;
78834;SDS011;68187;42.682;23.352;2023-03-23T12:36:36;9.50;;;5.90;;
78834;SDS011;68187;42.682;23.352;2023-03-23T12:39:25;9.35;;;5.38;;
78834;SDS011;68187;42.682;23.352;2023-03-23T12:42:07;9.98;;;5.38;;
78834;SDS011;68187;42.682;23.352;2023-03-23T12:44:43;8.23;;;5.07;;
78834;SDS011;68187;42.682;23.352;2023-03-23T12:47:19;9.23;;;5.70;;
78834;SDS011;68187;42.682;23.352;2023-03-23T12:49:54;10.00;;;5.30;;
78834;SDS011;68187;42.682;23.352;2023-03-23T12:54:56;8.00;;;5.70;;
78834;SDS011;68187;42.682;23.352;2023-03-23T12:57:29;8.25;;;4.97;;
78834;SDS011;68187;42.682;23.352;2023-03-23T13:00:03;8.77;;;5.30;;
78834;SDS011;68187;42.682;23.352;2023-03-23T13:02:38;8.45;;;5.30;;
78834;SDS011;68187;42.682;23.352;2023-03-23T13:05:08;8.35;;;5.35;;
78834;SDS011;68187;42.682;23.352;2023-03-23T13:07:39;9.07;;;5.68;;
78834;SDS011;68187;42.682;23.352;2023-03-23T13:10:13;9.35;;;5.70;;
78834;SDS011;68187;42.682;23.352;2023-03-23T13:12:46;9.90;;;5.40;;
78834;SDS011;68187;42.682;23.352;2023-03-23T13:15:18;7.80;;;5.35;;
78834;SDS011;68187;42.682;23.352;2023-03-23T13:17:54;9.13;;;5.25;;
78834;SDS011;68187;42.682;23.352;2023-03-23T13:20:37;8.07;;;5.05;;
78834;SDS011;68187;42.682;23.352;2023-03-23T13:23:15;8.35;;;4.78;;
78834;SDS011;68187;42.682;23.352;2023-03-23T13:25:50;9.60;;;5.97;;
78834;SDS011;68187;42.682;23.352;2023-03-23T13:28:22;8.32;;;4.97;;
78834;SDS011;68187;42.682;23.352;2023-03-23T13:30:56;7.75;;;4.65;;
78834;SDS011;68187;42.682;23.352;2023-03-23T13:33:25;7.72;;;4.60;;
78834;SDS011;68187;42.682;23.352;2023-03-23T13:35:55;10.27;;;5.50;;
78834;SDS011;68187;42.682;23.352;2023-03-23T13:38:23;8.55;;;5.05;;
78834;SDS011;68187;42.682;23.352;2023-03-23T13:40:53;7.97;;;4.25;;
78834;SDS011;68187;42.682;23.352;2023-03-23T13:43:25;8.38;;;4.82;;
78834;SDS011;68187;42.682;23.352;2023-03-23T13:45:53;11.98;;;5.18;;
78834;SDS011;68187;42.682;23.352;2023-03-23T13:48:24;7.82;;;4.82;;
78834;SDS011;68187;42.682;23.352;2023-03-23T13:50:52;8.23;;;4.10;;
78834;SDS011;68187;42.682;23.352;2023-03-23T13:53:25;8.75;;;5.03;;
78834;SDS011;68187;42.682;23.352;2023-03-23T13:56:07;8.13;;;4.93;;
78834;SDS011;68187;42.682;23.352;2023-03-23T13:58:44;13.95;;;5.28;;
78834;SDS011;68187;42.682;23.352;2023-03-23T14:01:14;7.78;;;4.70;;
78834;SDS011;68187;42.682;23.352;2023-03-23T14:03:45;7.75;;;3.85;;
78834;SDS011;68187;42.682;23.352;2023-03-23T14:06:16;7.57;;;4.35;;
78834;SDS011;68187;42.682;23.352;2023-03-23T14:08:45;8.43;;;4.82;;
78834;SDS011;68187;42.682;23.352;2023-03-23T14:11:17;7.95;;;4.70;;
78834;SDS011;68187;42.682;23.352;2023-03-23T14:13:50;8.18;;;4.57;;
78834;SDS011;68187;42.682;23.352;2023-03-23T14:16:28;8.50;;;4.63;;
78834;SDS011;68187;42.682;23.352;2023-03-23T14:19:00;9.07;;;4.88;;
78834;SDS011;68187;42.682;23.352;2023-03-23T14:21:33;9.52;;;4.85;;
78834;SDS011;68187;42.682;23.352;2023-03-23T14:24:01;8.77;;;4.78;;
78834;SDS011;68187;42.682;23.352;2023-03-23T14:26:32;9.60;;;4.75;;
78834;SDS011;68187;42.682;23.352;2023-03-23T14:29:00;9.32;;;5.22;;
78834;SDS011;68187;42.682;23.352;2023-03-23T14:31:27;8.23;;;5.00;;
78834;SDS011;68187;42.682;23.352;2023-03-23T14:33:55;8.93;;;4.82;;
78834;SDS011;68187;42.682;23.352;2023-03-23T14:36:25;7.97;;;4.45;;
78834;SDS011;68187;42.682;23.352;2023-03-23T14:38:59;7.85;;;5.10;;
78834;SDS011;68187;42.682;23.352;2023-03-23T14:41:29;7.72;;;4.70;;
78834;SDS011;68187;42.682;23.352;2023-03-23T14:43:58;8.75;;;4.55;;
78834;SDS011;68187;42.682;23.352;2023-03-23T14:46:27;6.43;;;3.88;;